VABM/IXG METAR and TAF weather

Enter ICAO airport designator
Station Type Date Time Source
VABM METAR 2017/10/22 12:00 UTC NOAA

VABM 221200Z 25008KT 8000 SCT015 SCT080 25/21 Q1013


Station Type Date Time Source
VABM Decoded METAR 2017/10/22 12:00 UTC NOAA

Belgaum / Sambra, India (VABM) 15-51N 074-37E 747M
Oct 22, 2017 - 08:00 AM EDT / 2017.10.22 1200 UTC
Wind: from the WSW (250 degrees) at 9 MPH (8 KT):0
Visibility: 4 mile(s):0
Sky conditions: partly cloudy
Temperature: 77 F (25 C)
Dew Point: 69 F (21 C)
Relative Humidity: 78%
Pressure (altimeter): 29.91 in. Hg (1013 hPa)
ob: VABM 221200Z 25008KT 8000 SCT015 SCT080 25/21 Q1013
cycle: 12

Station Type Date Time Source
VABM TAF 2012/07/22 03:00 UTC NOAA

TAF VABM 220000Z 2203/2212 25010KT 8000 SCT015 SCT080
TEMPO 2209/2212 5000 RA/DZ SCT010 SCT015 BKN080


Example: see airport list